sensor_id;sensor_type;location;lat;lon;timestamp;pressure;altitude;pressure_sealevel;temperature;humidity
59009;BME280;44794;42.652;23.318;2022-12-07T00:01:29;94434.00;;;5.47;97.06
59009;BME280;44794;42.652;23.318;2022-12-07T00:03:56;94429.22;;;5.41;97.01
59009;BME280;44794;42.652;23.318;2022-12-07T00:06:36;94428.31;;;5.42;97.09
59009;BME280;44794;42.652;23.318;2022-12-07T00:09:03;94430.03;;;5.42;97.00
59009;BME280;44794;42.652;23.318;2022-12-07T00:11:29;94418.81;;;5.43;97.13
59009;BME280;44794;42.652;23.318;2022-12-07T00:13:57;94417.91;;;5.44;96.88
59009;BME280;44794;42.652;23.318;2022-12-07T00:16:26;94420.38;;;5.45;96.87
59009;BME280;44794;42.652;23.318;2022-12-07T00:18:52;94416.16;;;5.44;96.63
59009;BME280;44794;42.652;23.318;2022-12-07T00:21:21;94412.66;;;5.45;96.65
59009;BME280;44794;42.652;23.318;2022-12-07T00:23:47;94417.16;;;5.42;96.75
59009;BME280;44794;42.652;23.318;2022-12-07T00:26:18;94413.00;;;5.39;96.73
59009;BME280;44794;42.652;23.318;2022-12-07T00:28:48;94418.06;;;5.41;96.74
59009;BME280;44794;42.652;23.318;2022-12-07T00:31:16;94422.09;;;5.31;96.72
59009;BME280;44794;42.652;23.318;2022-12-07T00:33:43;94426.59;;;5.27;97.21
59009;BME280;44794;42.652;23.318;2022-12-07T00:36:11;94419.63;;;5.29;97.43
59009;BME280;44794;42.652;23.318;2022-12-07T00:38:38;94417.84;;;5.30;97.49
59009;BME280;44794;42.652;23.318;2022-12-07T00:41:27;94415.78;;;5.36;97.54
59009;BME280;44794;42.652;23.318;2022-12-07T00:43:51;94400.84;;;5.27;97.46
59009;BME280;44794;42.652;23.318;2022-12-07T00:46:18;94412.81;;;5.28;97.69
59009;BME280;44794;42.652;23.318;2022-12-07T00:48:45;94416.66;;;5.21;97.93
59009;BME280;44794;42.652;23.318;2022-12-07T00:51:12;94398.47;;;5.09;98.55
59009;BME280;44794;42.652;23.318;2022-12-07T00:53:38;94400.69;;;5.15;99.00
59009;BME280;44794;42.652;23.318;2022-12-07T00:58:32;94400.44;;;5.19;99.04
59009;BME280;44794;42.652;23.318;2022-12-07T01:01:00;94396.97;;;5.20;99.37
59009;BME280;44794;42.652;23.318;2022-12-07T01:03:27;94394.84;;;5.27;99.60
59009;BME280;44794;42.652;23.318;2022-12-07T01:05:54;94396.34;;;5.31;99.54
59009;BME280;44794;42.652;23.318;2022-12-07T01:08:21;94394.59;;;5.31;99.52
59009;BME280;44794;42.652;23.318;2022-12-07T01:10:47;94391.22;;;5.31;99.65
59009;BME280;44794;42.652;23.318;2022-12-07T01:13:13;94388.53;;;5.32;99.76
59009;BME280;44794;42.652;23.318;2022-12-07T01:15:43;94388.53;;;5.32;99.65
59009;BME280;44794;42.652;23.318;2022-12-07T01:18:09;94375.75;;;5.31;99.95
59009;BME280;44794;42.652;23.318;2022-12-07T01:20:35;94377.31;;;5.33;99.84
59009;BME280;44794;42.652;23.318;2022-12-07T01:23:01;94381.56;;;5.34;99.80
59009;BME280;44794;42.652;23.318;2022-12-07T01:25:27;94381.56;;;5.34;99.76
59009;BME280;44794;42.652;23.318;2022-12-07T01:27:52;94376.66;;;5.30;99.53
59009;BME280;44794;42.652;23.318;2022-12-07T01:30:18;94373.44;;;5.26;99.81
59009;BME280;44794;42.652;23.318;2022-12-07T01:32:43;94368.56;;;5.22;99.65
59009;BME280;44794;42.652;23.318;2022-12-07T01:35:09;94370.66;;;5.16;99.76
59009;BME280;44794;42.652;23.318;2022-12-07T01:37:36;94370.00;;;5.12;99.92
59009;BME280;44794;42.652;23.318;2022-12-07T01:40:03;94358.38;;;5.05;99.92
59009;BME280;44794;42.652;23.318;2022-12-07T01:42:29;94369.00;;;4.99;100.00
59009;BME280;44794;42.652;23.318;2022-12-07T01:47:58;94374.69;;;4.90;100.00
59009;BME280;44794;42.652;23.318;2022-12-07T01:50:26;94367.69;;;4.92;100.00
59009;BME280;44794;42.652;23.318;2022-12-07T01:52:55;94364.31;;;4.92;100.00
59009;BME280;44794;42.652;23.318;2022-12-07T01:55:22;94358.25;;;4.93;100.00
59009;BME280;44794;42.652;23.318;2022-12-07T01:57:49;94355.59;;;4.94;100.00
59009;BME280;44794;42.652;23.318;2022-12-07T02:00:16;94352.09;;;4.95;100.00
59009;BME280;44794;42.652;23.318;2022-12-07T02:02:49;94344.13;;;5.00;100.00
59009;BME280;44794;42.652;23.318;2022-12-07T02:05:17;94337.13;;;5.02;100.00
59009;BME280;44794;42.652;23.318;2022-12-07T02:07:44;94334.91;;;4.96;100.00
59009;BME280;44794;42.652;23.318;2022-12-07T02:10:20;94334.91;;;4.96;100.00
59009;BME280;44794;42.652;23.318;2022-12-07T02:12:55;94336.66;;;4.95;100.00
59009;BME280;44794;42.652;23.318;2022-12-07T02:15:22;94348.69;;;4.95;100.00
59009;BME280;44794;42.652;23.318;2022-12-07T02:17:54;94351.03;;;4.84;100.00
59009;BME280;44794;42.652;23.318;2022-12-07T02:23:40;94339.34;;;4.94;100.00
59009;BME280;44794;42.652;23.318;2022-12-07T02:27:07;94338.22;;;4.98;100.00
59009;BME280;44794;42.652;23.318;2022-12-07T02:29:10;94339.81;;;5.00;100.00
59009;BME280;44794;42.652;23.318;2022-12-07T02:34:49;94333.66;;;5.03;100.00
59009;BME280;44794;42.652;23.318;2022-12-07T02:37:33;94330.34;;;5.01;100.00
59009;BME280;44794;42.652;23.318;2022-12-07T02:40:06;94327.03;;;4.99;100.00
59009;BME280;44794;42.652;23.318;2022-12-07T02:42:39;94330.63;;;4.96;100.00
59009;BME280;44794;42.652;23.318;2022-12-07T02:45:06;94334.34;;;4.91;100.00
59009;BME280;44794;42.652;23.318;2022-12-07T02:47:34;94328.81;;;4.83;100.00
59009;BME280;44794;42.652;23.318;2022-12-07T02:50:04;94327.34;;;4.79;100.00
59009;BME280;44794;42.652;23.318;2022-12-07T02:52:30;94335.31;;;4.74;100.00
59009;BME280;44794;42.652;23.318;2022-12-07T02:54:55;94328.94;;;4.66;100.00
59009;BME280;44794;42.652;23.318;2022-12-07T03:00:19;94320.63;;;4.61;100.00
59009;BME280;44794;42.652;23.318;2022-12-07T03:05:29;94306.03;;;4.46;100.00
59009;BME280;44794;42.652;23.318;2022-12-07T03:13:50;94289.97;;;4.27;100.00
59009;BME280;44794;42.652;23.318;2022-12-07T03:16:21;94287.75;;;4.21;100.00
59009;BME280;44794;42.652;23.318;2022-12-07T03:18:55;94283.69;;;4.17;100.00
59009;BME280;44794;42.652;23.318;2022-12-07T03:21:29;94289.81;;;4.15;100.00
59009;BME280;44794;42.652;23.318;2022-12-07T03:23:58;94294.88;;;4.16;100.00
59009;BME280;44794;42.652;23.318;2022-12-07T03:26:31;94294.13;;;4.14;100.00
59009;BME280;44794;42.652;23.318;2022-12-07T03:29:02;94290.16;;;4.09;100.00
59009;BME280;44794;42.652;23.318;2022-12-07T03:31:33;94301.09;;;4.12;100.00
59009;BME280;44794;42.652;23.318;2022-12-07T03:34:21;94301.84;;;4.14;100.00
59009;BME280;44794;42.652;23.318;2022-12-07T03:36:54;94297.84;;;4.09;100.00
59009;BME280;44794;42.652;23.318;2022-12-07T03:41:52;94289.91;;;4.13;100.00
59009;BME280;44794;42.652;23.318;2022-12-07T03:44:18;94288.84;;;4.17;100.00
59009;BME280;44794;42.652;23.318;2022-12-07T03:50:12;94287.09;;;4.18;100.00
59009;BME280;44794;42.652;23.318;2022-12-07T03:52:55;94283.75;;;4.16;100.00
59009;BME280;44794;42.652;23.318;2022-12-07T03:55:39;94287.25;;;4.15;100.00
59009;BME280;44794;42.652;23.318;2022-12-07T03:58:16;94276.91;;;4.16;100.00
59009;BME280;44794;42.652;23.318;2022-12-07T04:00:43;94276.72;;;4.19;100.00
59009;BME280;44794;42.652;23.318;2022-12-07T04:03:10;94276.72;;;4.19;100.00
59009;BME280;44794;42.652;23.318;2022-12-07T04:05:36;94271.91;;;4.13;100.00
59009;BME280;44794;42.652;23.318;2022-12-07T04:08:02;94272.66;;;4.15;100.00
59009;BME280;44794;42.652;23.318;2022-12-07T04:10:28;94273.09;;;4.23;100.00
59009;BME280;44794;42.652;23.318;2022-12-07T04:12:54;94275.66;;;4.23;100.00
59009;BME280;44794;42.652;23.318;2022-12-07T04:15:19;94269.59;;;4.24;100.00
59009;BME280;44794;42.652;23.318;2022-12-07T04:17:44;94273.09;;;4.23;100.00
59009;BME280;44794;42.652;23.318;2022-12-07T04:20:10;94266.19;;;4.24;100.00
59009;BME280;44794;42.652;23.318;2022-12-07T04:22:36;94273.81;;;4.25;100.00
59009;BME280;44794;42.652;23.318;2022-12-07T04:25:02;94272.25;;;4.23;100.00
59009;BME280;44794;42.652;23.318;2022-12-07T04:27:27;94285.09;;;4.23;100.00
59009;BME280;44794;42.652;23.318;2022-12-07T04:29:53;94278.38;;;4.20;100.00
59009;BME280;44794;42.652;23.318;2022-12-07T04:32:18;94278.97;;;4.10;100.00
59009;BME280;44794;42.652;23.318;2022-12-07T04:34:44;94280.06;;;4.06;100.00
59009;BME280;44794;42.652;23.318;2022-12-07T04:37:09;94276.41;;;4.10;100.00
59009;BME280;44794;42.652;23.318;2022-12-07T04:39:35;94277.06;;;4.13;100.00
59009;BME280;44794;42.652;23.318;2022-12-07T04:42:01;94284.84;;;4.12;100.00
59009;BME280;44794;42.652;23.318;2022-12-07T04:44:28;94279.16;;;4.07;100.00
59009;BME280;44794;42.652;23.318;2022-12-07T04:46:54;94281.06;;;4.03;100.00
59009;BME280;44794;42.652;23.318;2022-12-07T04:49:20;94281.34;;;3.97;100.00
59009;BME280;44794;42.652;23.318;2022-12-07T04:51:46;94290.97;;;3.94;100.00
59009;BME280;44794;42.652;23.318;2022-12-07T04:54:13;94292.16;;;3.88;100.00
59009;BME280;44794;42.652;23.318;2022-12-07T04:56:39;94288.16;;;3.83;100.00
59009;BME280;44794;42.652;23.318;2022-12-07T04:59:05;94282.19;;;3.82;100.00
59009;BME280;44794;42.652;23.318;2022-12-07T05:01:32;94284.78;;;3.82;100.00
59009;BME280;44794;42.652;23.318;2022-12-07T05:03:58;94284.81;;;3.81;100.00
59009;BME280;44794;42.652;23.318;2022-12-07T05:06:24;94288.06;;;3.84;100.00
59009;BME280;44794;42.652;23.318;2022-12-07T05:08:49;94286.41;;;3.83;100.00
59009;BME280;44794;42.652;23.318;2022-12-07T05:11:15;94279.22;;;3.74;100.00
59009;BME280;44794;42.652;23.318;2022-12-07T05:14:00;94272.41;;;3.73;100.00
59009;BME280;44794;42.652;23.318;2022-12-07T05:16:26;94273.88;;;3.77;100.00
59009;BME280;44794;42.652;23.318;2022-12-07T05:18:51;94267.50;;;3.84;100.00
59009;BME280;44794;42.652;23.318;2022-12-07T05:21:17;94273.50;;;4.00;100.00
59009;BME280;44794;42.652;23.318;2022-12-07T05:23:43;94264.03;;;4.01;100.00
59009;BME280;44794;42.652;23.318;2022-12-07T05:26:08;94259.50;;;4.06;100.00
59009;BME280;44794;42.652;23.318;2022-12-07T05:28:33;94263.78;;;4.05;100.00
59009;BME280;44794;42.652;23.318;2022-12-07T05:30:59;94261.97;;;4.07;100.00
59009;BME280;44794;42.652;23.318;2022-12-07T05:33:25;94260.41;;;4.05;100.00
59009;BME280;44794;42.652;23.318;2022-12-07T05:35:50;94262.47;;;3.98;100.00
59009;BME280;44794;42.652;23.318;2022-12-07T05:38:15;94259.75;;;4.01;100.00
59009;BME280;44794;42.652;23.318;2022-12-07T05:40:41;94259.75;;;4.01;100.00
59009;BME280;44794;42.652;23.318;2022-12-07T05:43:06;94258.59;;;4.07;100.00
59009;BME280;44794;42.652;23.318;2022-12-07T05:45:32;94258.00;;;4.02;100.00
59009;BME280;44794;42.652;23.318;2022-12-07T05:47:57;94252.53;;;4.08;100.00
59009;BME280;44794;42.652;23.318;2022-12-07T05:50:23;94249.53;;;4.15;100.00
59009;BME280;44794;42.652;23.318;2022-12-07T05:52:48;94255.34;;;4.19;100.00
59009;BME280;44794;42.652;23.318;2022-12-07T05:55:14;94255.59;;;4.14;100.00
59009;BME280;44794;42.652;23.318;2022-12-07T05:57:39;94257.16;;;4.17;100.00
59009;BME280;44794;42.652;23.318;2022-12-07T06:00:25;94259.63;;;4.18;100.00
59009;BME280;44794;42.652;23.318;2022-12-07T06:02:50;94258.00;;;4.17;100.00
59009;BME280;44794;42.652;23.318;2022-12-07T06:05:15;94250.31;;;4.17;100.00
59009;BME280;44794;42.652;23.318;2022-12-07T06:07:41;94258.72;;;4.19;100.00
59009;BME280;44794;42.652;23.318;2022-12-07T06:10:07;94261.97;;;4.23;100.00
59009;BME280;44794;42.652;23.318;2022-12-07T06:12:32;94262.97;;;4.20;100.00
59009;BME280;44794;42.652;23.318;2022-12-07T06:15:00;94267.03;;;4.24;100.00
59009;BME280;44794;42.652;23.318;2022-12-07T06:17:26;94260.91;;;4.27;100.00
59009;BME280;44794;42.652;23.318;2022-12-07T06:19:52;94275.88;;;4.34;100.00
59009;BME280;44794;42.652;23.318;2022-12-07T06:22:17;94272.41;;;4.35;100.00
59009;BME280;44794;42.652;23.318;2022-12-07T06:24:43;94276.28;;;4.42;100.00
59009;BME280;44794;42.652;23.318;2022-12-07T06:27:09;94280.03;;;4.52;100.00
59009;BME280;44794;42.652;23.318;2022-12-07T06:29:35;94284.63;;;4.61;100.00
59009;BME280;44794;42.652;23.318;2022-12-07T06:32:00;94290.91;;;4.71;100.00
59009;BME280;44794;42.652;23.318;2022-12-07T06:34:26;94283.59;;;4.79;100.00
59009;BME280;44794;42.652;23.318;2022-12-07T06:36:53;94294.84;;;4.92;100.00
59009;BME280;44794;42.652;23.318;2022-12-07T06:39:29;94295.16;;;5.01;100.00
59009;BME280;44794;42.652;23.318;2022-12-07T06:41:56;94299.53;;;5.15;100.00
59009;BME280;44794;42.652;23.318;2022-12-07T06:44:22;94298.03;;;5.24;100.00
59009;BME280;44794;42.652;23.318;2022-12-07T06:46:49;94301.84;;;5.33;100.00
59009;BME280;44794;42.652;23.318;2022-12-07T06:49:15;94319.25;;;5.43;100.00
59009;BME280;44794;42.652;23.318;2022-12-07T06:51:41;94318.31;;;5.44;100.00
59009;BME280;44794;42.652;23.318;2022-12-07T06:54:11;94329.72;;;5.40;100.00
59009;BME280;44794;42.652;23.318;2022-12-07T06:56:36;94336.25;;;5.46;100.00
59009;BME280;44794;42.652;23.318;2022-12-07T06:59:03;94339.28;;;5.52;100.00
59009;BME280;44794;42.652;23.318;2022-12-07T07:01:30;94341.97;;;5.51;100.00
59009;BME280;44794;42.652;23.318;2022-12-07T07:03:56;94344.44;;;5.52;100.00
59009;BME280;44794;42.652;23.318;2022-12-07T07:06:21;94341.78;;;5.54;100.00
59009;BME280;44794;42.652;23.318;2022-12-07T07:08:47;94347.75;;;5.54;100.00
59009;BME280;44794;42.652;23.318;2022-12-07T07:11:12;94354.38;;;5.58;99.96
59009;BME280;44794;42.652;23.318;2022-12-07T07:13:38;94344.09;;;5.72;99.77
59009;BME280;44794;42.652;23.318;2022-12-07T07:16:04;94351.97;;;5.85;99.46
59009;BME280;44794;42.652;23.318;2022-12-07T07:18:30;94347.72;;;5.97;99.08
59009;BME280;44794;42.652;23.318;2022-12-07T07:20:55;94355.81;;;5.92;98.79
59009;BME280;44794;42.652;23.318;2022-12-07T07:23:21;94351.16;;;5.69;97.71
59009;BME280;44794;42.652;23.318;2022-12-07T07:25:47;94356.00;;;5.45;98.41
59009;BME280;44794;42.652;23.318;2022-12-07T07:28:13;94353.56;;;5.58;98.70
59009;BME280;44794;42.652;23.318;2022-12-07T07:30:39;94356.00;;;5.75;98.72
59009;BME280;44794;42.652;23.318;2022-12-07T07:33:05;94354.09;;;5.92;98.81
59009;BME280;44794;42.652;23.318;2022-12-07T07:35:32;94368.16;;;6.00;98.01
59009;BME280;44794;42.652;23.318;2022-12-07T07:37:59;94369.91;;;6.00;97.66
59009;BME280;44794;42.652;23.318;2022-12-07T07:40:25;94372.22;;;6.18;97.45
59009;BME280;44794;42.652;23.318;2022-12-07T07:42:53;94370.63;;;6.30;96.33
59009;BME280;44794;42.652;23.318;2022-12-07T07:45:20;94384.81;;;6.37;95.53
59009;BME280;44794;42.652;23.318;2022-12-07T07:47:46;94385.06;;;6.46;94.69
59009;BME280;44794;42.652;23.318;2022-12-07T07:50:12;94381.00;;;6.70;93.94
59009;BME280;44794;42.652;23.318;2022-12-07T07:52:38;94387.84;;;6.83;93.02
59009;BME280;44794;42.652;23.318;2022-12-07T07:55:04;94393.13;;;7.08;92.61
59009;BME280;44794;42.652;23.318;2022-12-07T07:57:29;94394.81;;;7.22;91.73
59009;BME280;44794;42.652;23.318;2022-12-07T07:59:55;94404.97;;;7.25;90.49
59009;BME280;44794;42.652;23.318;2022-12-07T08:02:20;94400.88;;;7.35;89.63
59009;BME280;44794;42.652;23.318;2022-12-07T08:04:47;94413.47;;;7.39;88.51
59009;BME280;44794;42.652;23.318;2022-12-07T08:07:13;94414.38;;;7.52;88.40
59009;BME280;44794;42.652;23.318;2022-12-07T08:09:38;94411.03;;;7.50;87.70
59009;BME280;44794;42.652;23.318;2022-12-07T08:12:04;94419.31;;;7.55;87.33
59009;BME280;44794;42.652;23.318;2022-12-07T08:14:30;94420.22;;;7.42;86.84
59009;BME280;44794;42.652;23.318;2022-12-07T08:16:56;94420.41;;;7.39;87.04
59009;BME280;44794;42.652;23.318;2022-12-07T08:22:37;94413.63;;;7.24;87.19
59009;BME280;44794;42.652;23.318;2022-12-07T08:25:02;94416.75;;;7.29;87.09
59009;BME280;44794;42.652;23.318;2022-12-07T08:27:28;94415.28;;;6.98;86.78
59009;BME280;44794;42.652;23.318;2022-12-07T08:29:53;94411.94;;;7.10;87.57
59009;BME280;44794;42.652;23.318;2022-12-07T08:32:19;94417.13;;;7.10;87.39
59009;BME280;44794;42.652;23.318;2022-12-07T08:34:44;94417.69;;;7.01;87.46
59009;BME280;44794;42.652;23.318;2022-12-07T08:37:10;94415.00;;;7.03;88.03
59009;BME280;44794;42.652;23.318;2022-12-07T08:42:57;94409.84;;;7.29;87.48
59009;BME280;44794;42.652;23.318;2022-12-07T08:45:23;94411.84;;;7.38;87.18
59009;BME280;44794;42.652;23.318;2022-12-07T08:47:50;94421.78;;;7.44;86.41
59009;BME280;44794;42.652;23.318;2022-12-07T08:50:17;94414.44;;;7.38;85.90
59009;BME280;44794;42.652;23.318;2022-12-07T08:52:43;94411.50;;;7.30;85.34
59009;BME280;44794;42.652;23.318;2022-12-07T08:55:11;94408.22;;;7.41;85.33
59009;BME280;44794;42.652;23.318;2022-12-07T08:57:38;94411.56;;;7.55;84.82
59009;BME280;44794;42.652;23.318;2022-12-07T09:00:05;94415.28;;;7.63;84.79
59009;BME280;44794;42.652;23.318;2022-12-07T09:02:31;94413.41;;;7.53;84.44
59009;BME280;44794;42.652;23.318;2022-12-07T09:04:57;94404.25;;;7.61;84.79
59009;BME280;44794;42.652;23.318;2022-12-07T09:07:23;94396.59;;;7.72;84.55
59009;BME280;44794;42.652;23.318;2022-12-07T09:09:49;94403.19;;;7.51;84.20
59009;BME280;44794;42.652;23.318;2022-12-07T09:12:14;94403.22;;;7.64;84.91
59009;BME280;44794;42.652;23.318;2022-12-07T09:14:40;94393.44;;;7.81;84.78
59009;BME280;44794;42.652;23.318;2022-12-07T09:17:11;94398.47;;;7.70;83.91
59009;BME280;44794;42.652;23.318;2022-12-07T09:19:37;94380.81;;;7.77;84.11
59009;BME280;44794;42.652;23.318;2022-12-07T09:22:03;94374.41;;;7.82;84.18
59009;BME280;44794;42.652;23.318;2022-12-07T09:24:30;94384.13;;;7.79;83.91
59009;BME280;44794;42.652;23.318;2022-12-07T09:26:57;94392.28;;;7.85;83.98
59009;BME280;44794;42.652;23.318;2022-12-07T09:29:23;94398.06;;;7.89;83.41
59009;BME280;44794;42.652;23.318;2022-12-07T09:31:48;94388.22;;;7.69;83.54
59009;BME280;44794;42.652;23.318;2022-12-07T09:34:14;94378.59;;;7.58;84.01
59009;BME280;44794;42.652;23.318;2022-12-07T09:36:39;94370.75;;;7.60;84.34
59009;BME280;44794;42.652;23.318;2022-12-07T09:39:05;94369.31;;;7.81;84.50
59009;BME280;44794;42.652;23.318;2022-12-07T09:41:31;94370.16;;;8.06;84.01
59009;BME280;44794;42.652;23.318;2022-12-07T09:44:12;94369.47;;;8.29;83.11
59009;BME280;44794;42.652;23.318;2022-12-07T09:46:41;94370.38;;;8.40;81.83
59009;BME280;44794;42.652;23.318;2022-12-07T09:49:13;94370.38;;;8.40;81.02
59009;BME280;44794;42.652;23.318;2022-12-07T09:51:39;94370.97;;;8.56;81.24
59009;BME280;44794;42.652;23.318;2022-12-07T09:54:05;94370.69;;;8.84;80.97
59009;BME280;44794;42.652;23.318;2022-12-07T09:56:31;94380.47;;;9.04;78.72
59009;BME280;44794;42.652;23.318;2022-12-07T09:59:01;94387.56;;;9.13;77.65
59009;BME280;44794;42.652;23.318;2022-12-07T10:01:32;94380.16;;;9.08;77.31
59009;BME280;44794;42.652;23.318;2022-12-07T10:04:10;94378.00;;;9.26;76.85
59009;BME280;44794;42.652;23.318;2022-12-07T10:06:38;94384.47;;;9.55;76.39
59009;BME280;44794;42.652;23.318;2022-12-07T10:09:12;94379.53;;;9.52;75.45
59009;BME280;44794;42.652;23.318;2022-12-07T10:14:27;94369.28;;;9.95;73.82
59009;BME280;44794;42.652;23.318;2022-12-07T10:16:53;94373.59;;;10.18;73.08
59009;BME280;44794;42.652;23.318;2022-12-07T10:19:26;94373.50;;;10.52;71.80
59009;BME280;44794;42.652;23.318;2022-12-07T10:22:11;94393.66;;;10.82;70.80
59009;BME280;44794;42.652;23.318;2022-12-07T10:24:42;94375.00;;;10.88;69.51
59009;BME280;44794;42.652;23.318;2022-12-07T10:27:20;94370.50;;;10.90;69.49
59009;BME280;44794;42.652;23.318;2022-12-07T10:29:53;94364.25;;;11.03;69.76
59009;BME280;44794;42.652;23.318;2022-12-07T10:34:44;94351.41;;;10.69;69.60
59009;BME280;44794;42.652;23.318;2022-12-07T10:39:43;94348.13;;;10.23;70.98
59009;BME280;44794;42.652;23.318;2022-12-07T10:42:20;94329.00;;;10.02;71.38
59009;BME280;44794;42.652;23.318;2022-12-07T10:44:47;94346.34;;;10.13;71.92
59009;BME280;44794;42.652;23.318;2022-12-07T11:01:03;94312.97;;;10.41;70.48
59009;BME280;44794;42.652;23.318;2022-12-07T11:12:25;94317.66;;;10.69;69.30
59009;BME280;44794;42.652;23.318;2022-12-07T11:15:11;94312.94;;;10.63;68.99
59009;BME280;44794;42.652;23.318;2022-12-07T11:18:13;94305.50;;;10.69;68.95
59009;BME280;44794;42.652;23.318;2022-12-07T11:21:06;94304.94;;;10.44;69.12
59009;BME280;44794;42.652;23.318;2022-12-07T11:23:48;94298.81;;;10.45;69.84
59009;BME280;44794;42.652;23.318;2022-12-07T11:29:32;94286.06;;;10.20;70.35
59009;BME280;44794;42.652;23.318;2022-12-07T11:37:41;94270.09;;;10.57;69.76
59009;BME280;44794;42.652;23.318;2022-12-07T11:40:29;94271.22;;;10.44;69.47
59009;BME280;44794;42.652;23.318;2022-12-07T11:43:05;94275.91;;;10.50;69.99
59009;BME280;44794;42.652;23.318;2022-12-07T11:45:37;94268.72;;;10.32;70.06
59009;BME280;44794;42.652;23.318;2022-12-07T11:48:14;94266.00;;;10.33;69.79
59009;BME280;44794;42.652;23.318;2022-12-07T11:50:46;94263.91;;;10.38;70.02
59009;BME280;44794;42.652;23.318;2022-12-07T12:06:43;94250.69;;;10.19;70.39
59009;BME280;44794;42.652;23.318;2022-12-07T12:09:16;94241.59;;;10.25;70.22
59009;BME280;44794;42.652;23.318;2022-12-07T12:14:51;94234.03;;;9.89;71.20
59009;BME280;44794;42.652;23.318;2022-12-07T12:26:01;94231.09;;;10.26;69.92
59009;BME280;44794;42.652;23.318;2022-12-07T12:33:37;94213.03;;;10.36;70.02
59009;BME280;44794;42.652;23.318;2022-12-07T12:51:52;94199.81;;;10.81;67.71
59009;BME280;44794;42.652;23.318;2022-12-07T12:54:21;94216.38;;;11.00;67.46
59009;BME280;44794;42.652;23.318;2022-12-07T12:59:38;94220.50;;;11.03;66.93
59009;BME280;44794;42.652;23.318;2022-12-07T13:02:28;94225.41;;;11.17;66.84
59009;BME280;44794;42.652;23.318;2022-12-07T13:05:20;94228.63;;;11.29;66.17
59009;BME280;44794;42.652;23.318;2022-12-07T13:15:45;94207.34;;;10.84;66.69
59009;BME280;44794;42.652;23.318;2022-12-07T13:23:36;94206.91;;;10.79;67.21
59009;BME280;44794;42.652;23.318;2022-12-07T13:29:15;94211.09;;;10.59;68.35
59009;BME280;44794;42.652;23.318;2022-12-07T13:31:48;94206.25;;;10.66;68.22
59009;BME280;44794;42.652;23.318;2022-12-07T13:37:08;94205.09;;;10.59;68.14
59009;BME280;44794;42.652;23.318;2022-12-07T13:39:50;94204.84;;;10.62;67.96
59009;BME280;44794;42.652;23.318;2022-12-07T13:42:37;94206.13;;;10.56;68.34
59009;BME280;44794;42.652;23.318;2022-12-07T13:45:23;94200.63;;;10.50;68.73
59009;BME280;44794;42.652;23.318;2022-12-07T13:48:20;94197.31;;;10.48;69.22
59009;BME280;44794;42.652;23.318;2022-12-07T13:50:57;94200.63;;;10.50;69.18
59009;BME280;44794;42.652;23.318;2022-12-07T13:53:24;94195.66;;;10.47;69.30
59009;BME280;44794;42.652;23.318;2022-12-07T13:55:53;94179.78;;;10.41;69.44
59009;BME280;44794;42.652;23.318;2022-12-07T13:58:19;94175.06;;;10.35;69.56
59009;BME280;44794;42.652;23.318;2022-12-07T14:00:45;94177.69;;;10.24;70.23
59009;BME280;44794;42.652;23.318;2022-12-07T14:05:40;94181.13;;;10.24;70.66
59009;BME280;44794;42.652;23.318;2022-12-07T14:10:53;94181.56;;;10.18;71.01
59009;BME280;44794;42.652;23.318;2022-12-07T14:15:50;94191.38;;;10.15;70.61
59009;BME280;44794;42.652;23.318;2022-12-07T14:18:38;94194.31;;;10.10;70.71
59009;BME280;44794;42.652;23.318;2022-12-07T14:23:36;94186.53;;;9.88;71.64
59009;BME280;44794;42.652;23.318;2022-12-07T14:26:13;94191.97;;;9.85;72.07
59009;BME280;44794;42.652;23.318;2022-12-07T14:28:39;94194.56;;;9.74;72.65
59009;BME280;44794;42.652;23.318;2022-12-07T14:31:12;94189.63;;;9.61;73.45
59009;BME280;44794;42.652;23.318;2022-12-07T14:33:39;94193.13;;;9.38;73.83
59009;BME280;44794;42.652;23.318;2022-12-07T14:36:05;94181.69;;;9.29;74.31
59009;BME280;44794;42.652;23.318;2022-12-07T14:38:38;94171.28;;;9.18;75.13
59009;BME280;44794;42.652;23.318;2022-12-07T14:41:10;94175.41;;;9.10;75.17
59009;BME280;44794;42.652;23.318;2022-12-07T14:43:56;94180.78;;;9.07;75.71
59009;BME280;44794;42.652;23.318;2022-12-07T14:46:21;94164.66;;;8.93;76.27
59009;BME280;44794;42.652;23.318;2022-12-07T14:48:52;94168.56;;;8.75;77.62
59009;BME280;44794;42.652;23.318;2022-12-07T14:51:18;94162.13;;;8.80;78.52
59009;BME280;44794;42.652;23.318;2022-12-07T14:53:48;94161.66;;;8.75;78.76
59009;BME280;44794;42.652;23.318;2022-12-07T14:56:15;94153.47;;;8.58;79.50
59009;BME280;44794;42.652;23.318;2022-12-07T14:58:41;94159.78;;;8.54;80.09
59009;BME280;44794;42.652;23.318;2022-12-07T15:01:07;94162.94;;;8.46;80.32
59009;BME280;44794;42.652;23.318;2022-12-07T15:03:34;94162.75;;;8.49;80.79
59009;BME280;44794;42.652;23.318;2022-12-07T15:06:00;94166.88;;;8.28;81.35
59009;BME280;44794;42.652;23.318;2022-12-07T15:08:26;94166.16;;;8.26;81.78
59009;BME280;44794;42.652;23.318;2022-12-07T15:10:52;94164.09;;;8.19;82.22
59009;BME280;44794;42.652;23.318;2022-12-07T15:13:17;94163.91;;;8.10;82.70
59009;BME280;44794;42.652;23.318;2022-12-07T15:16:02;94175.22;;;7.96;82.90
59009;BME280;44794;42.652;23.318;2022-12-07T15:18:28;94169.97;;;7.85;83.41
59009;BME280;44794;42.652;23.318;2022-12-07T15:20:53;94172.59;;;7.73;83.71
59009;BME280;44794;42.652;23.318;2022-12-07T15:23:19;94171.91;;;7.58;84.24
59009;BME280;44794;42.652;23.318;2022-12-07T15:25:46;94161.69;;;7.44;84.95
59009;BME280;44794;42.652;23.318;2022-12-07T15:28:13;94165.63;;;7.38;85.76
59009;BME280;44794;42.652;23.318;2022-12-07T15:30:40;94151.69;;;7.28;86.14
59009;BME280;44794;42.652;23.318;2022-12-07T15:33:06;94168.19;;;7.25;86.43
59009;BME280;44794;42.652;23.318;2022-12-07T15:35:31;94152.13;;;7.09;86.94
59009;BME280;44794;42.652;23.318;2022-12-07T15:37:57;94137.97;;;7.02;87.55